This is the latest recevied weather packets stored in our database for station/object PP5CFL-13. If no packets are shown the sender has not sent any weather packets the latest 10 day(s).
| Time | Temp. | Humidity | Pressure | Rain* | Wind** | Luminosity | Snow |
|---|---|---|---|---|---|---|---|
| 1778159325 | 25° C | 85% | 1016.6 hPa | - | - | - | - |
| 1778159025 | 24.44° C | 86% | 1016.6 hPa | - | - | - | - |
| 1778158725 | 25° C | 84% | 1016.6 hPa | - | - | - | - |
| 1778158425 | 24.44° C | 86% | 1016.7 hPa | - | - | - | - |
| 1778158125 | 25° C | 85% | 1016.9 hPa | - | - | - | - |
| 1778157825 | 24.44° C | 85% | 1017 hPa | - | - | - | - |
| 1778157525 | 24.44° C | 86% | 1017 hPa | - | - | - | - |
| 1778157225 | 24.44° C | 87% | 1017 hPa | - | - | - | - |
| 1778156925 | 23.89° C | 91% | 1016.9 hPa | - | - | - | - |
| 1778156625 | 23.33° C | 94% | 1016.9 hPa | - | - | - | - |
| 1778156325 | 23.33° C | 95% | 1017.1 hPa | - | - | - | - |
| 1778156025 | 23.33° C | 95% | 1017.3 hPa | - | - | - | - |
| 1778155725 | 23.33° C | 96% | 1017.3 hPa | - | - | - | - |
| 1778155425 | 23.33° C | 98% | 1017.2 hPa | - | - | - | - |
| 1778155125 | 23.33° C | 99% | 1017.2 hPa | - | - | - | - |
| 1778154825 | 23.33° C | 98% | 1017.3 hPa | - | - | - | - |
| 1778154525 | 23.33° C | 98% | 1017.2 hPa | - | - | - | - |
| 1778154225 | 23.33° C | 97% | 1017.3 hPa | - | - | - | - |
| 1778153925 | 23.33° C | 97% | 1017.3 hPa | - | - | - | - |
| 1778153625 | 23.33° C | 97% | 1017.4 hPa | - | - | - | - |
| 1778153325 | 23.33° C | 97% | 1017.4 hPa | - | - | - | - |
| 1778153025 | 23.89° C | 97% | 1017.4 hPa | - | - | - | - |
| 1778152725 | 23.89° C | 97% | 1017.3 hPa | - | - | - | - |
| 1778152425 | 23.33° C | 97% | 1017.4 hPa | - | - | - | - |
| 1778152125 | 23.33° C | 97% | 1017.2 hPa | - | - | - | - |
* Rain since midnight (hover to see other rain measurements)
** Current wind speed in m/s (hover to see current wind gust speed)